Time;durP1;ratioP1;P1;durP2;ratioP2;P2;SDS_P1;SDS_P2;PMS_P1;PMS_P2;Temp;Humidity;BMP_temperature;BMP_pressure;BME280_temperature;BME280_humidity;BME280_pressure;Samples;Min_cycle;Max_cycle;Signal;HPM_P1;HPM_P2
2021/10/02 00:46:30;;;;;;;;;1.00;1.00;;;;;;;;2767554;51;8780;-59
2021/10/02 00:48:56;;;;;;;;;1.00;1.00;;;;;;;;2767399;51;8889;-59
2021/10/02 00:51:22;;;;;;;;;0.50;0.50;;;;;;;;2768013;51;8772;-61
2021/10/02 00:53:47;;;;;;;;;1.00;1.00;;;;;;;;2767368;51;8861;-58
2021/10/02 00:56:13;;;;;;;;;5.00;2.00;;;;;;;;2767873;51;8771;-59
2021/10/02 00:58:44;;;;;;;;;1.00;1.00;;;;;;;;2767894;51;8780;-58
2021/10/02 01:01:11;;;;;;;;;0.75;0.75;;;;;;;;2768121;51;8775;-59
2021/10/02 01:03:40;;;;;;;;;1.50;1.00;;;;;;;;2767620;51;8767;-60
2021/10/02 01:06:46;;;;;;;;;2.25;0.00;;;;;;;;2767416;51;9389;-59
2021/10/02 01:09:43;;;;;;;;;1.00;1.00;;;;;;;;2760675;52;8881;-59
2021/10/02 01:12:24;;;;;;;;;1.00;1.00;;;;;;;;2760445;51;9005;-60
2021/10/02 01:15:03;;;;;;;;;1.25;1.25;;;;;;;;2767348;51;8859;-59
2021/10/02 01:17:33;;;;;;;;;0.75;0.75;;;;;;;;2767506;51;8752;-59
2021/10/02 01:20:25;;;;;;;;;1.00;1.00;;;;;;;;2767355;51;8912;-58
2021/10/02 01:23:09;;;;;;;;;1.50;1.00;;;;;;;;2764791;51;8783;-58
2021/10/02 01:25:54;;;;;;;;;4.75;1.25;;;;;;;;2767171;51;8897;-59
2021/10/02 01:28:21;;;;;;;;;0.00;0.00;;;;;;;;2767289;51;8786;-59
2021/10/02 01:47:12;;;;;;;;;1.00;1.00;;;;;;;;2767245;51;8780;-59
2021/10/02 01:49:48;;;;;;;;;1.00;1.00;;;;;;;;2767640;51;8771;-59
2021/10/02 01:52:15;;;;;;;;;1.50;1.00;;;;;;;;2767285;51;8849;-59
2021/10/02 01:54:41;;;;;;;;;2.75;1.25;;;;;;;;2767341;51;8930;-60
2021/10/02 01:57:08;;;;;;;;;2.00;0.75;;;;;;;;2767106;51;8783;-59
2021/10/02 01:59:33;;;;;;;;;2.75;1.25;;;;;;;;2767376;51;8779;-59
2021/10/02 02:02:00;;;;;;;;;0.00;0.00;;;;;;;;2767151;51;8812;-59
2021/10/02 02:04:29;;;;;;;;;0.25;0.25;;;;;;;;2767444;51;8788;-59
2021/10/02 02:06:57;;;;;;;;;2.25;1.75;;;;;;;;2766976;51;8900;-59
2021/10/02 02:09:25;;;;;;;;;2.00;2.00;;;;;;;;2767087;51;8767;-59
2021/10/02 02:11:50;;;;;;;;;2.00;2.00;;;;;;;;2767277;51;8893;-59
2021/10/02 02:14:16;;;;;;;;;2.00;2.00;;;;;;;;2767002;51;8763;-58
2021/10/02 02:16:43;;;;;;;;;1.50;1.50;;;;;;;;2767340;51;8792;-58
2021/10/02 02:19:09;;;;;;;;;4.50;1.25;;;;;;;;2767010;51;8771;-57
2021/10/02 02:21:35;;;;;;;;;4.50;1.50;;;;;;;;2767255;51;8860;-59
2021/10/02 02:24:01;;;;;;;;;4.00;2.00;;;;;;;;2767020;51;8772;-59
2021/10/02 02:26:27;;;;;;;;;3.33;2.00;;;;;;;;2767047;51;8792;-58
2021/10/02 02:28:53;;;;;;;;;1.75;1.00;;;;;;;;2766603;51;11564;-58
2021/10/02 02:31:19;;;;;;;;;1.00;1.00;;;;;;;;2767039;51;8763;-60
2021/10/02 02:33:45;;;;;;;;;1.00;1.00;;;;;;;;2767253;51;8768;-60
2021/10/02 02:36:11;;;;;;;;;1.00;1.00;;;;;;;;2766989;51;8787;-58
2021/10/02 02:38:36;;;;;;;;;3.33;2.00;;;;;;;;2766894;51;9016;-61
2021/10/02 02:41:03;;;;;;;;;1.00;1.00;;;;;;;;2767079;51;8828;-60
2021/10/02 02:43:32;;;;;;;;;3.75;1.00;;;;;;;;2766976;51;8776;-59
2021/10/02 02:46:06;;;;;;;;;1.25;1.00;;;;;;;;2767031;51;8897;-59
2021/10/02 02:48:35;;;;;;;;;1.00;1.00;;;;;;;;2766840;51;9505;-59
2021/10/02 02:51:01;;;;;;;;;1.00;1.00;;;;;;;;2767079;51;8791;-58
2021/10/02 02:53:31;;;;;;;;;1.00;1.00;;;;;;;;2767009;51;8865;-59
2021/10/02 02:56:01;;;;;;;;;1.25;1.00;;;;;;;;2767304;51;8763;-58
2021/10/02 02:58:28;;;;;;;;;1.00;1.00;;;;;;;;2767092;51;8799;-59
2021/10/02 03:00:57;;;;;;;;;1.75;1.75;;;;;;;;2766992;51;8795;-59
2021/10/02 03:03:26;;;;;;;;;1.50;0.75;;;;;;;;2766892;51;8871;-59
2021/10/02 03:05:54;;;;;;;;;1.00;1.00;;;;;;;;2767314;51;8794;-58
2021/10/02 03:08:20;;;;;;;;;1.00;1.00;;;;;;;;2767133;51;8869;-59
2021/10/02 03:10:47;;;;;;;;;2.00;2.00;;;;;;;;2766993;51;8897;-60
2021/10/02 03:13:16;;;;;;;;;1.50;0.50;;;;;;;;2771687;51;8776;-59
2021/10/02 03:15:42;;;;;;;;;1.00;1.00;;;;;;;;2766968;51;8788;-59
2021/10/02 03:18:11;;;;;;;;;4.00;4.00;;;;;;;;2766902;51;8990;-59
2021/10/02 03:20:37;;;;;;;;;0.00;0.00;;;;;;;;2766936;51;8764;-59
2021/10/02 03:23:04;;;;;;;;;1.75;1.75;;;;;;;;2766918;51;8772;-60
2021/10/02 03:25:30;;;;;;;;;0.50;0.00;;;;;;;;2766785;51;8787;-59
2021/10/02 03:27:57;;;;;;;;;1.00;1.00;;;;;;;;2766738;51;8800;-60
2021/10/02 03:30:23;;;;;;;;;0.50;0.50;;;;;;;;2766756;51;8891;-59
2021/10/02 03:32:49;;;;;;;;;1.00;1.00;;;;;;;;2766968;51;8976;-60
2021/10/02 03:35:16;;;;;;;;;1.67;1.67;;;;;;;;2766912;51;8889;-59
2021/10/02 03:37:42;;;;;;;;;5.25;1.00;;;;;;;;2767060;51;10308;-60
2021/10/02 03:40:09;;;;;;;;;2.50;1.50;;;;;;;;2767667;51;8764;-59
2021/10/02 03:42:48;;;;;;;;;1.50;1.50;;;;;;;;2767695;51;8886;-61
2021/10/02 03:45:15;;;;;;;;;2.00;2.00;;;;;;;;2767742;51;8879;-59
2021/10/02 03:47:41;;;;;;;;;1.00;1.00;;;;;;;;2767726;51;8811;-59
2021/10/02 03:50:07;;;;;;;;;0.33;0.33;;;;;;;;2768001;51;8780;-61
2021/10/02 03:52:33;;;;;;;;;4.00;1.75;;;;;;;;2767568;51;8796;-59
2021/10/02 03:54:59;;;;;;;;;2.00;1.00;;;;;;;;2767619;51;8780;-60
2021/10/02 03:57:24;;;;;;;;;1.33;1.33;;;;;;;;2768013;51;8903;-58
2021/10/02 03:59:50;;;;;;;;;3.00;1.00;;;;;;;;2767591;51;8798;-61
2021/10/02 04:02:16;;;;;;;;;1.00;1.00;;;;;;;;2767530;51;8893;-61
2021/10/02 04:04:41;;;;;;;;;1.00;1.00;;;;;;;;2767931;51;8775;-61
2021/10/02 04:07:07;;;;;;;;;1.00;1.00;;;;;;;;2767590;51;8811;-60
2021/10/02 04:09:33;;;;;;;;;2.00;2.00;;;;;;;;2767626;51;8776;-60
2021/10/02 04:11:58;;;;;;;;;1.33;1.33;;;;;;;;2768052;51;8768;-59
2021/10/02 04:14:24;;;;;;;;;2.00;2.00;;;;;;;;2767836;51;8779;-59
2021/10/02 04:16:50;;;;;;;;;1.00;1.00;;;;;;;;2767334;51;9488;-58
2021/10/02 04:19:15;;;;;;;;;1.67;1.67;;;;;;;;2767426;51;8790;-59
2021/10/02 04:21:41;;;;;;;;;3.33;3.33;;;;;;;;2767391;51;8775;-59
2021/10/02 04:24:07;;;;;;;;;2.00;0.00;;;;;;;;2767597;51;8780;-61
2021/10/02 04:26:33;;;;;;;;;1.67;1.67;;;;;;;;2767924;51;8796;-59
2021/10/02 04:28:58;;;;;;;;;2.00;1.00;;;;;;;;2767230;51;8965;-62
2021/10/02 04:31:24;;;;;;;;;1.00;1.00;;;;;;;;2767464;51;8881;-62
2021/10/02 04:33:49;;;;;;;;;0.00;0.00;;;;;;;;2767941;51;8784;-60
2021/10/02 04:36:15;;;;;;;;;1.00;1.00;;;;;;;;2767832;51;9401;-60
2021/10/02 04:38:41;;;;;;;;;2.33;2.33;;;;;;;;2772056;51;9385;-59
2021/10/02 04:41:06;;;;;;;;;2.33;2.00;;;;;;;;2767411;51;8771;-60
2021/10/02 04:43:37;;;;;;;;;2.33;2.33;;;;;;;;2767835;51;8759;-59
2021/10/02 04:46:02;;;;;;;;;2.00;1.00;;;;;;;;2767944;51;8780;-60
2021/10/02 04:48:28;;;;;;;;;3.00;1.33;;;;;;;;2767556;51;8780;-58
2021/10/02 04:50:54;;;;;;;;;0.00;0.00;;;;;;;;2767488;51;8914;-62
2021/10/02 04:53:19;;;;;;;;;2.00;2.00;;;;;;;;2767395;51;8786;-60
2021/10/02 04:55:45;;;;;;;;;2.00;2.00;;;;;;;;2767637;51;8771;-59
2021/10/02 04:58:11;;;;;;;;;2.00;2.00;;;;;;;;2767755;51;8906;-61
2021/10/02 05:00:36;;;;;;;;;2.00;2.00;;;;;;;;2767473;51;8815;-60
2021/10/02 05:03:02;;;;;;;;;2.33;2.33;;;;;;;;2767665;51;8783;-59
2021/10/02 05:05:28;;;;;;;;;3.00;2.25;;;;;;;;2767411;51;8767;-59
2021/10/02 05:07:53;;;;;;;;;3.67;2.00;;;;;;;;2767417;51;8791;-59
2021/10/02 05:10:19;;;;;;;;;2.00;2.00;;;;;;;;2767405;51;9388;-59
2021/10/02 05:12:45;;;;;;;;;2.00;1.25;;;;;;;;2767395;51;8780;-60
2021/10/02 05:15:11;;;;;;;;;7.00;5.00;;;;;;;;2767504;51;8779;-60
2021/10/02 05:17:36;;;;;;;;;4.33;2.00;;;;;;;;2767440;51;8823;-61
2021/10/02 05:20:03;;;;;;;;;0.00;0.00;;;;;;;;2767475;51;11495;-60
2021/10/02 05:22:29;;;;;;;;;1.25;1.25;;;;;;;;2767433;51;8767;-62
2021/10/02 05:24:54;;;;;;;;;2.00;2.00;;;;;;;;2767427;51;8812;-59
2021/10/02 05:27:20;;;;;;;;;3.00;1.67;;;;;;;;2767274;51;8804;-63
2021/10/02 05:29:46;;;;;;;;;1.00;1.00;;;;;;;;2767285;51;8898;-60
2021/10/02 05:32:13;;;;;;;;;2.00;2.00;;;;;;;;2767414;51;8910;-60
2021/10/02 05:34:39;;;;;;;;;1.00;1.00;;;;;;;;2767645;51;11464;-60
2021/10/02 05:37:04;;;;;;;;;2.00;2.00;;;;;;;;2771904;51;8875;-60
2021/10/02 05:39:30;;;;;;;;;2.33;1.33;;;;;;;;2767188;51;9460;-59
2021/10/02 05:41:56;;;;;;;;;3.00;3.00;;;;;;;;2767747;51;9445;-61
2021/10/02 05:44:21;;;;;;;;;4.00;2.00;;;;;;;;2767371;51;9419;-61
2021/10/02 05:46:47;;;;;;;;;3.00;2.00;;;;;;;;2767285;51;8959;-60
2021/10/02 05:49:13;;;;;;;;;1.75;1.75;;;;;;;;2767091;51;8791;-61
2021/10/02 05:51:38;;;;;;;;;3.00;3.00;;;;;;;;2767105;51;8787;-61
2021/10/02 05:54:04;;;;;;;;;3.50;2.75;;;;;;;;2767047;51;8780;-62
2021/10/02 05:56:30;;;;;;;;;2.25;2.25;;;;;;;;2767029;51;8784;-62
2021/10/02 05:58:55;;;;;;;;;2.75;2.75;;;;;;;;2767188;51;8998;-60
2021/10/02 06:01:21;;;;;;;;;4.00;2.00;;;;;;;;2767008;51;8776;-60
2021/10/02 06:03:47;;;;;;;;;3.75;3.25;;;;;;;;2766738;51;8764;-61
2021/10/02 06:06:13;;;;;;;;;3.50;2.00;;;;;;;;2767110;51;10094;-61
2021/10/02 06:08:38;;;;;;;;;2.20;1.00;;;;;;;;2766978;51;8790;-60
2021/10/02 06:11:04;;;;;;;;;2.00;1.50;;;;;;;;2766994;51;8788;-59
2021/10/02 06:13:32;;;;;;;;;1.75;1.75;;;;;;;;2766930;51;8792;-61
2021/10/02 06:16:01;;;;;;;;;2.40;2.40;;;;;;;;2767464;51;8771;-61
2021/10/02 06:18:27;;;;;;;;;3.00;2.00;;;;;;;;2766968;51;8776;-62
2021/10/02 06:20:53;;;;;;;;;1.00;1.00;;;;;;;;2767199;51;8760;-61
2021/10/02 06:23:19;;;;;;;;;2.75;2.25;;;;;;;;2767046;51;9005;-60
2021/10/02 06:25:44;;;;;;;;;2.00;1.75;;;;;;;;2766921;51;8886;-60
2021/10/02 06:28:10;;;;;;;;;2.50;2.50;;;;;;;;2766848;51;8812;-61
2021/10/02 06:30:35;;;;;;;;;3.00;3.00;;;;;;;;2766877;51;8963;-60
2021/10/02 06:33:01;;;;;;;;;2.75;2.75;;;;;;;;2767001;51;8795;-60
2021/10/02 06:35:27;;;;;;;;;2.50;2.00;;;;;;;;2767009;51;8772;-61
2021/10/02 06:37:52;;;;;;;;;3.75;3.75;;;;;;;;2766923;51;8779;-60
2021/10/02 06:40:18;;;;;;;;;3.00;2.00;;;;;;;;2766849;51;8793;-63
2021/10/02 06:42:44;;;;;;;;;4.25;0.75;;;;;;;;2767312;51;8788;-62
2021/10/02 06:45:10;;;;;;;;;1.75;1.75;;;;;;;;2767042;51;8787;-62
2021/10/02 06:47:35;;;;;;;;;3.00;2.00;;;;;;;;2766908;51;8796;-62
2021/10/02 06:50:01;;;;;;;;;1.25;1.00;;;;;;;;2767152;51;9425;-62
2021/10/02 06:52:28;;;;;;;;;1.60;1.60;;;;;;;;2766900;51;8783;-63
2021/10/02 06:54:54;;;;;;;;;2.20;2.20;;;;;;;;2767223;51;8784;-60
2021/10/02 06:57:20;;;;;;;;;1.60;1.60;;;;;;;;2767248;51;8780;-61
2021/10/02 06:59:46;;;;;;;;;1.80;1.80;;;;;;;;2766871;51;8763;-59
2021/10/02 07:02:11;;;;;;;;;3.00;2.00;;;;;;;;2766853;51;9455;-60
2021/10/02 07:04:37;;;;;;;;;1.75;1.25;;;;;;;;2767063;51;8791;-59
2021/10/02 07:07:04;;;;;;;;;1.80;1.80;;;;;;;;2767067;51;8832;-60
2021/10/02 07:09:29;;;;;;;;;1.40;1.40;;;;;;;;2766627;51;9000;-61
2021/10/02 07:11:55;;;;;;;;;3.80;2.00;;;;;;;;2767113;51;8780;-59
2021/10/02 07:14:21;;;;;;;;;3.40;3.40;;;;;;;;2767064;51;8803;-60
2021/10/02 07:16:47;;;;;;;;;4.25;3.00;;;;;;;;2767016;51;8856;-60
2021/10/02 07:19:12;;;;;;;;;2.00;1.50;;;;;;;;2766855;51;8808;-62
2021/10/02 07:21:38;;;;;;;;;3.00;2.20;;;;;;;;2766937;51;8779;-61
2021/10/02 07:24:04;;;;;;;;;3.20;1.80;;;;;;;;2766997;51;8819;-62
2021/10/02 07:26:30;;;;;;;;;1.80;1.40;;;;;;;;2766671;51;8913;-62
2021/10/02 07:28:55;;;;;;;;;2.00;2.00;;;;;;;;2766821;51;9437;-61
2021/10/02 07:31:21;;;;;;;;;2.00;2.00;;;;;;;;2767026;51;8837;-63
2021/10/02 07:33:48;;;;;;;;;2.00;2.00;;;;;;;;2766869;51;8786;-60
2021/10/02 07:36:18;;;;;;;;;3.00;2.00;;;;;;;;2766929;51;9405;-61
2021/10/02 07:38:44;;;;;;;;;2.40;2.40;;;;;;;;2766673;51;8792;-61
2021/10/02 07:41:14;;;;;;;;;0.00;0.00;;;;;;;;2766730;51;8784;-60
2021/10/02 07:43:40;;;;;;;;;0.80;0.80;;;;;;;;2766683;51;8796;-60
2021/10/02 07:46:08;;;;;;;;;1.80;1.20;;;;;;;;2766701;51;8772;-60
2021/10/02 07:48:34;;;;;;;;;3.40;1.60;;;;;;;;2766742;51;8888;-61
2021/10/02 07:51:00;;;;;;;;;1.75;1.75;;;;;;;;2767024;51;9571;-60
2021/10/02 07:53:29;;;;;;;;;0.40;0.40;;;;;;;;2767280;51;11480;-61
2021/10/02 07:55:55;;;;;;;;;1.60;1.60;;;;;;;;2766703;51;8858;-63
2021/10/02 07:58:22;;;;;;;;;0.75;0.75;;;;;;;;2766746;51;8784;-62
2021/10/02 08:00:48;;;;;;;;;0.00;0.00;;;;;;;;2766903;51;8803;-60
2021/10/02 08:03:14;;;;;;;;;0.00;0.00;;;;;;;;2766911;51;8760;-60
2021/10/02 08:05:40;;;;;;;;;1.00;0.00;;;;;;;;2766630;51;9428;-60
2021/10/02 08:08:06;;;;;;;;;0.50;0.00;;;;;;;;2766662;51;8799;-62
2021/10/02 08:10:31;;;;;;;;;0.00;0.00;;;;;;;;2766640;51;8815;-63
2021/10/02 08:12:57;;;;;;;;;0.00;0.00;;;;;;;;2766776;51;8799;-60
2021/10/02 08:15:23;;;;;;;;;1.00;1.00;;;;;;;;2765560;51;8791;-60
2021/10/02 08:17:50;;;;;;;;;0.00;0.00;;;;;;;;2766505;51;8776;-62
2021/10/02 08:20:17;;;;;;;;;2.00;0.00;;;;;;;;2766804;51;8792;-62
2021/10/02 08:22:44;;;;;;;;;0.00;0.00;;;;;;;;2766596;51;9631;-61
2021/10/02 08:25:11;;;;;;;;;0.40;0.40;;;;;;;;2766685;51;8764;-60
2021/10/02 08:27:36;;;;;;;;;0.00;0.00;;;;;;;;2767074;51;8818;-60
2021/10/02 08:30:06;;;;;;;;;0.00;0.00;;;;;;;;2767883;51;8779;-63
2021/10/02 08:32:32;;;;;;;;;0.00;0.00;;;;;;;;2767566;51;8788;-62
2021/10/02 08:34:58;;;;;;;;;0.00;0.00;;;;;;;;2767472;51;8899;-65
2021/10/02 08:37:24;;;;;;;;;0.00;0.00;;;;;;;;2772383;51;8868;-61
2021/10/02 08:39:50;;;;;;;;;0.00;0.00;;;;;;;;2767255;51;9398;-62
2021/10/02 08:42:16;;;;;;;;;1.00;0.00;;;;;;;;2767508;51;8776;-61
2021/10/02 08:44:42;;;;;;;;;0.00;0.00;;;;;;;;2767488;51;11431;-63
2021/10/02 08:47:09;;;;;;;;;0.00;0.00;;;;;;;;2767600;51;8808;-63
2021/10/02 08:49:38;;;;;;;;;0.00;0.00;;;;;;;;2767346;51;8824;-62
2021/10/02 08:52:04;;;;;;;;;0.00;0.00;;;;;;;;2767730;51;8803;-61
2021/10/02 08:54:33;;;;;;;;;0.80;0.80;;;;;;;;2767393;51;8768;-59
2021/10/02 08:57:00;;;;;;;;;0.00;0.00;;;;;;;;2767576;51;8783;-62
2021/10/02 08:59:26;;;;;;;;;0.80;0.80;;;;;;;;2767417;51;8764;-61
2021/10/02 09:01:51;;;;;;;;;0.00;0.00;;;;;;;;2767441;51;8791;-62
2021/10/02 09:04:17;;;;;;;;;0.00;0.00;;;;;;;;2767762;51;8778;-63
2021/10/02 09:06:43;;;;;;;;;0.00;0.00;;;;;;;;2767450;51;8811;-62
2021/10/02 09:09:09;;;;;;;;;0.00;0.00;;;;;;;;2767132;51;8910;-63
2021/10/02 09:11:35;;;;;;;;;0.00;0.00;;;;;;;;2769594;51;9796;-63
2021/10/02 09:14:01;;;;;;;;;0.00;0.00;;;;;;;;2772185;51;9187;-63
2021/10/02 09:16:27;;;;;;;;;0.00;0.00;;;;;;;;2772258;51;8903;-63
2021/10/02 09:18:52;;;;;;;;;0.00;0.00;;;;;;;;2772349;51;11434;-62
2021/10/02 09:21:18;;;;;;;;;0.00;0.00;;;;;;;;2772029;51;8785;-61
2021/10/02 09:23:45;;;;;;;;;0.00;0.00;;;;;;;;2772183;51;8773;-62
2021/10/02 09:26:11;;;;;;;;;0.00;0.00;;;;;;;;2772116;51;8761;-61
2021/10/02 09:28:38;;;;;;;;;0.00;0.00;;;;;;;;2772298;51;8781;-64
2021/10/02 09:31:04;;;;;;;;;0.00;0.00;;;;;;;;2772150;51;8785;-61
2021/10/02 09:33:30;;;;;;;;;0.00;0.00;;;;;;;;2771270;51;8780;-64
2021/10/02 09:35:56;;;;;;;;;0.00;0.00;;;;;;;;2771855;51;8813;-60
2021/10/02 09:38:21;;;;;;;;;1.00;0.00;;;;;;;;2772058;51;8789;-62
2021/10/02 09:40:48;;;;;;;;;0.00;0.00;;;;;;;;2770841;51;8797;-64
2021/10/02 09:43:14;;;;;;;;;0.00;0.00;;;;;;;;2771852;51;8793;-62
2021/10/02 09:45:40;;;;;;;;;0.00;0.00;;;;;;;;2772400;51;8873;-63
2021/10/02 09:48:07;;;;;;;;;0.00;0.00;;;;;;;;2771635;51;8797;-62
2021/10/02 09:50:35;;;;;;;;;1.00;1.00;;;;;;;;2771949;51;8808;-61
2021/10/02 09:53:02;;;;;;;;;1.00;1.00;;;;;;;;2771768;51;8841;-63
2021/10/02 09:55:29;;;;;;;;;0.40;0.40;;;;;;;;2772008;51;8765;-60
2021/10/02 09:57:58;;;;;;;;;0.00;0.00;;;;;;;;2771348;51;8781;-60
2021/10/02 10:00:44;;;;;;;;;1.00;1.00;;;;;;;;2771032;51;9418;-58
2021/10/02 10:03:11;;;;;;;;;0.80;0.80;;;;;;;;2771254;51;8809;-59
2021/10/02 10:05:38;;;;;;;;;0.20;0.00;;;;;;;;2771167;51;8800;-62
2021/10/02 10:08:05;;;;;;;;;1.00;0.00;;;;;;;;2771865;51;8781;-60
2021/10/02 10:10:31;;;;;;;;;0.80;0.80;;;;;;;;2771711;51;8819;-61
2021/10/02 10:13:01;;;;;;;;;0.00;0.00;;;;;;;;2771859;51;8789;-61
2021/10/02 10:15:28;;;;;;;;;0.00;0.00;;;;;;;;2771857;51;8802;-63
2021/10/02 10:17:55;;;;;;;;;0.00;0.00;;;;;;;;2771852;51;8769;-60
2021/10/02 10:20:29;;;;;;;;;0.00;0.00;;;;;;;;2771827;51;8781;-61
2021/10/02 10:22:58;;;;;;;;;0.00;0.00;;;;;;;;2771922;51;8788;-61
2021/10/02 10:25:24;;;;;;;;;0.00;0.00;;;;;;;;2771879;51;9450;-62
2021/10/02 10:27:50;;;;;;;;;1.00;0.00;;;;;;;;2771396;51;8773;-60
2021/10/02 10:30:18;;;;;;;;;0.00;0.00;;;;;;;;2771960;51;8777;-61
2021/10/02 10:32:54;;;;;;;;;0.00;0.00;;;;;;;;2771961;51;8808;-60
2021/10/02 10:35:21;;;;;;;;;0.00;0.00;;;;;;;;2771923;51;8773;-63
2021/10/02 10:37:47;;;;;;;;;0.00;0.00;;;;;;;;2772054;51;8781;-61
2021/10/02 10:40:12;;;;;;;;;0.00;0.00;;;;;;;;2771727;51;8789;-62
2021/10/02 10:42:38;;;;;;;;;0.00;0.00;;;;;;;;2771851;51;9513;-62
2021/10/02 10:45:04;;;;;;;;;0.25;0.00;;;;;;;;2771918;51;8785;-61
2021/10/02 10:47:31;;;;;;;;;0.00;0.00;;;;;;;;2771615;51;8840;-60
2021/10/02 10:49:56;;;;;;;;;0.00;0.00;;;;;;;;2771578;51;8781;-62
2021/10/02 10:52:22;;;;;;;;;0.00;0.00;;;;;;;;2771840;51;8891;-59
2021/10/02 10:54:51;;;;;;;;;0.00;0.00;;;;;;;;2771841;51;8886;-63
2021/10/02 10:57:43;;;;;;;;;2.00;0.00;;;;;;;;2771842;51;8788;-61
2021/10/02 11:00:15;;;;;;;;;0.00;0.00;;;;;;;;2766502;51;8789;-61
2021/10/02 11:02:47;;;;;;;;;0.00;0.00;;;;;;;;2771655;51;8781;-61
2021/10/02 11:05:32;;;;;;;;;0.00;0.00;;;;;;;;2770701;51;8781;-60
2021/10/02 11:07:57;;;;;;;;;0.00;0.00;;;;;;;;2771434;51;8817;-59
2021/10/02 11:10:44;;;;;;;;;0.00;0.00;;;;;;;;2770481;51;8801;-65
2021/10/02 11:13:13;;;;;;;;;0.00;0.00;;;;;;;;2771118;51;8792;-60
2021/10/02 11:15:39;;;;;;;;;0.00;0.00;;;;;;;;2771666;51;8781;-61
2021/10/02 11:18:05;;;;;;;;;0.00;0.00;;;;;;;;2771952;51;8812;-59
2021/10/02 11:20:32;;;;;;;;;0.00;0.00;;;;;;;;2771233;51;9478;-61
2021/10/02 11:23:19;;;;;;;;;1.00;0.00;;;;;;;;2771577;51;8781;-63
2021/10/02 11:25:45;;;;;;;;;0.00;0.00;;;;;;;;2772001;51;8981;-60
2021/10/02 11:28:25;;;;;;;;;0.00;0.00;;;;;;;;2771358;51;8821;-60
2021/10/02 11:30:51;;;;;;;;;0.00;0.00;;;;;;;;2771250;51;8793;-61
2021/10/02 11:33:33;;;;;;;;;0.00;0.00;;;;;;;;2770859;51;8785;-61
2021/10/02 11:35:59;;;;;;;;;0.00;0.00;;;;;;;;2770507;51;8797;-60
2021/10/02 11:38:37;;;;;;;;;0.00;0.00;;;;;;;;2771067;51;8789;-62
2021/10/02 11:41:22;;;;;;;;;0.00;0.00;;;;;;;;2771606;51;8821;-63
2021/10/02 11:43:53;;;;;;;;;1.00;0.00;;;;;;;;2771433;51;8777;-62
2021/10/02 11:46:20;;;;;;;;;0.00;0.00;;;;;;;;2771833;51;8769;-62
2021/10/02 11:48:46;;;;;;;;;0.00;0.00;;;;;;;;2771801;51;8781;-61
2021/10/02 11:51:11;;;;;;;;;0.00;0.00;;;;;;;;2771606;51;8800;-61
2021/10/02 11:53:41;;;;;;;;;0.00;0.00;;;;;;;;2771954;51;8907;-62
2021/10/02 11:56:11;;;;;;;;;0.00;0.00;;;;;;;;2771647;51;8785;-61
2021/10/02 11:58:42;;;;;;;;;0.00;0.00;;;;;;;;2771266;51;8840;-61
2021/10/02 12:01:14;;;;;;;;;0.00;0.00;;;;;;;;2772118;51;8825;-63
2021/10/02 12:03:40;;;;;;;;;0.00;0.00;;;;;;;;2771095;51;8815;-64
2021/10/02 12:06:06;;;;;;;;;0.00;0.00;;;;;;;;2771804;51;8795;-62
2021/10/02 12:08:32;;;;;;;;;0.00;0.00;;;;;;;;2771902;51;8797;-63
2021/10/02 12:11:01;;;;;;;;;0.00;0.00;;;;;;;;2772322;51;8819;-63
2021/10/02 12:13:49;;;;;;;;;0.00;0.00;;;;;;;;2772594;51;8887;-63
2021/10/02 12:16:16;;;;;;;;;0.00;0.00;;;;;;;;2772137;51;8891;-61
2021/10/02 12:18:44;;;;;;;;;0.00;0.00;;;;;;;;2772313;51;8773;-63
2021/10/02 12:21:13;;;;;;;;;0.00;0.00;;;;;;;;2772455;51;8781;-60
2021/10/02 12:23:57;;;;;;;;;0.75;0.75;;;;;;;;2772013;51;8773;-61
2021/10/02 12:26:23;;;;;;;;;0.00;0.00;;;;;;;;2771299;51;8781;-62
2021/10/02 12:28:54;;;;;;;;;0.00;0.00;;;;;;;;2771449;51;8804;-61
2021/10/02 12:31:20;;;;;;;;;0.00;0.00;;;;;;;;2772428;51;8761;-65
2021/10/02 12:33:45;;;;;;;;;0.00;0.00;;;;;;;;2772279;51;8777;-64
2021/10/02 12:36:11;;;;;;;;;0.00;0.00;;;;;;;;2772374;51;8769;-61
2021/10/02 12:38:40;;;;;;;;;0.33;0.33;;;;;;;;2772188;51;8821;-63
2021/10/02 12:41:06;;;;;;;;;0.00;0.00;;;;;;;;2772161;51;8811;-61
2021/10/02 12:43:32;;;;;;;;;0.00;0.00;;;;;;;;2772193;51;8781;-64
2021/10/02 12:45:58;;;;;;;;;0.00;0.00;;;;;;;;2772138;51;8799;-62
2021/10/02 12:48:24;;;;;;;;;0.00;0.00;;;;;;;;2771273;51;8808;-64
2021/10/02 12:50:49;;;;;;;;;0.00;0.00;;;;;;;;2771879;51;8820;-62
2021/10/02 12:53:18;;;;;;;;;0.00;0.00;;;;;;;;2771432;51;8773;-62
2021/10/02 12:55:44;;;;;;;;;0.00;0.00;;;;;;;;2772124;51;8777;-59
2021/10/02 12:58:15;;;;;;;;;0.00;0.00;;;;;;;;2771765;51;8965;-61
2021/10/02 13:00:41;;;;;;;;;0.50;0.00;;;;;;;;2771387;51;8785;-61
2021/10/02 13:03:09;;;;;;;;;0.00;0.00;;;;;;;;2771826;51;8863;-59
2021/10/02 13:05:38;;;;;;;;;0.00;0.00;;;;;;;;2771783;51;8886;-61
2021/10/02 13:08:12;;;;;;;;;0.00;0.00;;;;;;;;2772005;51;8970;-61
2021/10/02 13:10:38;;;;;;;;;0.00;0.00;;;;;;;;2772168;51;8792;-61
2021/10/02 13:13:03;;;;;;;;;0.00;0.00;;;;;;;;2771796;51;8780;-61
2021/10/02 13:15:30;;;;;;;;;0.00;0.00;;;;;;;;2772286;51;8777;-62
2021/10/02 13:17:56;;;;;;;;;0.00;0.00;;;;;;;;2771550;51;8820;-61
2021/10/02 13:20:22;;;;;;;;;0.00;0.00;;;;;;;;2772300;51;8785;-60
2021/10/02 13:22:48;;;;;;;;;0.00;0.00;;;;;;;;2772486;51;8781;-61
2021/10/02 13:25:22;;;;;;;;;0.00;0.00;;;;;;;;2772593;51;8867;-62
2021/10/02 13:27:49;;;;;;;;;0.00;0.00;;;;;;;;2772598;51;9414;-61
2021/10/02 13:30:19;;;;;;;;;0.00;0.00;;;;;;;;2772218;51;8888;-62
2021/10/02 13:32:55;;;;;;;;;0.00;0.00;;;;;;;;2772253;51;9406;-62
2021/10/02 13:35:21;;;;;;;;;0.00;0.00;;;;;;;;2772380;51;8773;-63
2021/10/02 13:37:47;;;;;;;;;0.00;0.00;;;;;;;;2772010;51;8809;-61
2021/10/02 13:40:24;;;;;;;;;0.67;0.67;;;;;;;;2772096;51;8808;-62
2021/10/02 13:42:50;;;;;;;;;0.00;0.00;;;;;;;;2772303;51;8872;-62
2021/10/02 13:45:16;;;;;;;;;0.00;0.00;;;;;;;;2772150;51;8781;-63
2021/10/02 13:47:54;;;;;;;;;0.00;0.00;;;;;;;;2772143;51;8789;-61
2021/10/02 13:50:19;;;;;;;;;0.00;0.00;;;;;;;;2771901;51;8897;-63
2021/10/02 13:52:45;;;;;;;;;0.00;0.00;;;;;;;;2772071;51;8807;-61
2021/10/02 13:55:11;;;;;;;;;0.25;0.00;;;;;;;;2772362;51;8777;-61
2021/10/02 13:57:37;;;;;;;;;0.00;0.00;;;;;;;;2772017;51;9332;-61
2021/10/02 14:00:03;;;;;;;;;0.00;0.00;;;;;;;;2772090;51;9163;-62
2021/10/02 14:02:29;;;;;;;;;0.00;0.00;;;;;;;;2771883;51;8789;-60
2021/10/02 14:04:55;;;;;;;;;0.00;0.00;;;;;;;;2772249;51;9504;-63
2021/10/02 14:07:20;;;;;;;;;0.00;0.00;;;;;;;;2772411;51;8858;-62
2021/10/02 14:09:46;;;;;;;;;0.00;0.00;;;;;;;;2772301;51;8892;-60
2021/10/02 14:12:13;;;;;;;;;0.00;0.00;;;;;;;;2772400;51;8907;-62
2021/10/02 14:14:42;;;;;;;;;0.00;0.00;;;;;;;;2771986;51;8921;-63
2021/10/02 14:17:10;;;;;;;;;0.40;0.40;;;;;;;;2772076;51;8911;-61
2021/10/02 14:19:36;;;;;;;;;0.00;0.00;;;;;;;;2772114;51;8781;-61
2021/10/02 14:22:02;;;;;;;;;0.75;0.75;;;;;;;;2771970;51;9501;-61
2021/10/02 14:24:28;;;;;;;;;1.40;1.40;;;;;;;;2771668;51;8850;-61
2021/10/02 14:26:54;;;;;;;;;0.00;0.00;;;;;;;;2771669;51;8777;-61
2021/10/02 14:29:19;;;;;;;;;0.00;0.00;;;;;;;;2771906;51;8785;-61
2021/10/02 14:31:45;;;;;;;;;0.00;0.00;;;;;;;;2771926;51;8773;-61
2021/10/02 14:34:13;;;;;;;;;0.00;0.00;;;;;;;;2771944;51;8867;-61
2021/10/02 14:36:39;;;;;;;;;0.80;0.80;;;;;;;;2772199;51;8777;-62
2021/10/02 14:39:06;;;;;;;;;0.80;0.80;;;;;;;;2771743;51;8781;-62
2021/10/02 14:41:32;;;;;;;;;0.40;0.40;;;;;;;;2771879;51;8773;-61
2021/10/02 14:43:58;;;;;;;;;0.00;0.00;;;;;;;;2771828;51;8773;-62
2021/10/02 14:46:24;;;;;;;;;1.00;1.00;;;;;;;;2771749;51;8813;-61
2021/10/02 14:48:50;;;;;;;;;2.00;0.00;;;;;;;;2771967;51;8781;-61
2021/10/02 14:51:16;;;;;;;;;0.00;0.00;;;;;;;;2771974;51;8877;-61
2021/10/02 14:53:43;;;;;;;;;0.00;0.00;;;;;;;;2771742;51;8887;-61
2021/10/02 14:56:09;;;;;;;;;0.00;0.00;;;;;;;;2771952;51;9414;-60
2021/10/02 14:58:37;;;;;;;;;0.60;0.60;;;;;;;;2771827;51;9532;-61
2021/10/02 15:01:03;;;;;;;;;0.00;0.00;;;;;;;;2771937;51;8804;-62
2021/10/02 15:03:29;;;;;;;;;0.20;0.20;;;;;;;;2771997;51;8789;-65
2021/10/02 15:05:55;;;;;;;;;0.00;0.00;;;;;;;;2771462;51;8777;-61
2021/10/02 15:08:21;;;;;;;;;0.50;0.50;;;;;;;;2771410;51;8817;-59
2021/10/02 15:10:47;;;;;;;;;0.00;0.00;;;;;;;;2771504;51;8829;-62
2021/10/02 15:13:15;;;;;;;;;1.00;1.00;;;;;;;;2771541;51;11522;-62
2021/10/02 15:15:41;;;;;;;;;2.00;0.00;;;;;;;;2770920;51;8777;-60
2021/10/02 15:18:11;;;;;;;;;0.00;0.00;;;;;;;;2770694;51;8819;-62
2021/10/02 15:20:39;;;;;;;;;0.00;0.00;;;;;;;;2771191;51;8839;-60
2021/10/02 15:23:05;;;;;;;;;1.60;1.00;;;;;;;;2771242;51;8911;-60
2021/10/02 15:25:34;;;;;;;;;0.00;0.00;;;;;;;;2768753;51;8788;-65
2021/10/02 15:28:04;;;;;;;;;0.20;0.20;;;;;;;;2766960;51;8788;-61
2021/10/02 15:30:30;;;;;;;;;0.60;0.60;;;;;;;;2766770;51;8794;-59
2021/10/02 15:32:56;;;;;;;;;0.00;0.00;;;;;;;;2766805;51;8776;-59
2021/10/02 15:35:23;;;;;;;;;0.80;0.80;;;;;;;;2767101;51;8764;-61
2021/10/02 15:37:49;;;;;;;;;0.60;0.00;;;;;;;;2767594;51;8803;-60
2021/10/02 15:40:17;;;;;;;;;0.00;0.00;;;;;;;;2768496;51;8898;-60
2021/10/02 15:42:43;;;;;;;;;1.00;1.00;;;;;;;;2769560;51;8789;-63
2021/10/02 15:45:09;;;;;;;;;1.00;1.00;;;;;;;;2769146;51;8800;-63
2021/10/02 15:47:35;;;;;;;;;1.00;1.00;;;;;;;;2769039;51;11470;-60
2021/10/02 15:50:01;;;;;;;;;1.00;1.00;;;;;;;;2769436;51;11462;-60
2021/10/02 15:52:27;;;;;;;;;0.00;0.00;;;;;;;;2769749;51;8832;-64
2021/10/02 15:54:53;;;;;;;;;1.00;1.00;;;;;;;;2769892;51;8793;-62
2021/10/02 15:57:23;;;;;;;;;1.00;1.00;;;;;;;;2769042;51;8827;-60
2021/10/02 16:00:07;;;;;;;;;2.00;1.00;;;;;;;;2768202;51;8899;-63